Mackinac Island, Michigan
Current Conditions -  °F | °C
As of 5:37 PM on Friday 19 Dec 2014 (Local Time) from KMCD Reporting Station
Clear Clear  
Wind Chill: 19°   Ceiling: Unl
Heat Index: 19°   Visibility: 10mi
Dew Point: 16°   Wind: 0mph
Humidity: 87%   Direction: NA
Pressure: 30.27"   Gusts: NA
Location:  45.85°N, 84.62°W
Report Text: KMCD 192237Z AUTO 00000KT 10SM CLR M07/M09 A3027 RMK AO2 T10731091
Loading
Personal Weather Stations






























Interactive Weather Map New forecast layout! Learn more

10-Day Weather Forecast

Advertisements
Track Severe Weather on mobile